Pathein, Burma
Current Conditions -  °F | °C
As of 4:30 AM on Tuesday 25 Nov 2014 (Local Time) from VYYY Reporting Station
Clear Clear  
Wind Chill: 72°   Ceiling: Unl
Heat Index: 72°   Visibility: 3mi
Dew Point: 72°   Wind: 2mph
Humidity: 100%   Direction: 320°NW
Pressure: 29.85"   Gusts: NA
Location:  16.78°N, 94.73°E
Report Text: VYYY 242230Z 32002KT 5000 NSC 22/22 Q1011 NOSIG
Loading
Personal Weather Stations






























Interactive Weather Map New forecast layout! Learn more

10-Day Weather Forecast

Advertisements
Track Severe Weather on mobile